Time;durP1;ratioP1;P1;durP2;ratioP2;P2;SDS_P1;SDS_P2;PMS_P1;PMS_P2;Temp;Humidity;BMP_temperature;BMP_pressure;BME280_temperature;BME280_humidity;BME280_pressure;Samples;Min_cycle;Max_cycle;Signal;HPM_P1;HPM_P2
2023/01/17 00:01:32;;;;;;;4.20;1.45;;;;;;;4.50;100.00;96777.41;12197838;19;20011;-83
2023/01/17 00:10:06;;;;;;;6.90;1.85;;;;;;;4.62;100.00;96793.41;12179539;19;20003;-83
2023/01/17 00:14:07;;;;;;;4.18;1.35;;;;;;;4.60;100.00;96800.22;12246725;19;20066;-82
2023/01/17 00:18:09;;;;;;;5.50;1.85;;;;;;;4.65;100.00;96800.19;12182911;19;20266;-84
2023/01/17 01:35:28;;;;;;;2.88;1.52;;;;;;;3.89;87.88;96930.34;12194717;19;20044;-84
2023/01/17 01:39:29;;;;;;;1.80;1.05;;;;;;;3.84;86.77;96928.47;12178836;19;20006;-84
2023/01/17 01:43:49;;;;;;;3.03;1.23;;;;;;;3.84;86.55;96944.00;12200089;19;20002;-85
2023/01/17 01:47:56;;;;;;;5.57;1.88;;;;;;;3.86;86.83;96944.53;12197201;19;20054;-81
2023/01/17 01:52:01;;;;;;;3.63;1.33;;;;;;;3.86;85.99;96963.59;12185659;19;20007;-83
2023/01/17 01:56:06;;;;;;;5.13;1.50;;;;;;;3.87;86.07;96962.53;12206412;19;20108;-82
2023/01/17 02:00:15;;;;;;;4.07;2.00;;;;;;;3.88;86.27;96969.59;12191331;19;19998;-82
2023/01/17 02:04:18;;;;;;;2.33;1.40;;;;;;;3.89;86.65;96971.22;12217071;19;20523;-83
2023/01/17 02:08:21;;;;;;;;;;;;;;;3.84;86.91;96965.81;12235210;19;20026;-87
2023/01/17 02:12:23;;;;;;;5.57;1.67;;;;;;;3.84;87.23;96971.25;12258951;19;19915;-85
2023/01/17 02:16:43;;;;;;;4.40;1.83;;;;;;;3.80;87.65;96967.44;12259502;19;20011;-85
2023/01/17 02:21:07;;;;;;;4.55;1.52;;;;;;;3.73;88.09;96975.06;12219764;19;20020;-83
2023/01/17 02:25:17;;;;;;;;;;;;;;;3.62;87.91;96969.63;12188110;19;20024;-83
2023/01/17 02:29:41;;;;;;;4.60;1.50;;;;;;;3.63;88.39;96982.16;12200406;19;19907;-83
2023/01/17 02:34:03;;;;;;;5.57;1.65;;;;;;;3.65;88.47;96984.59;12186530;19;20011;-83
2023/01/17 02:38:15;;;;;;;5.43;2.40;;;;;;;3.65;88.77;96982.69;12204308;19;20018;-83
2023/01/17 02:42:25;;;;;;;4.65;1.90;;;;;;;3.65;88.80;96990.06;12184237;19;20022;-83
2023/01/17 02:46:26;;;;;;;5.75;2.00;;;;;;;3.68;88.83;96994.13;12202848;19;20009;-82
2023/01/17 02:51:07;;;;;;;4.47;2.15;;;;;;;3.69;89.23;96995.75;12205748;19;20009;-83
2023/01/17 02:55:21;;;;;;;3.63;1.98;;;;;;;3.64;89.33;97000.13;12184719;19;20010;-84
2023/01/17 02:59:52;;;;;;;8.63;2.05;;;;;;;3.58;90.16;97005.88;12208792;19;20483;-84
2023/01/17 03:04:05;;;;;;;3.13;1.70;;;;;;;3.59;90.88;96997.41;12182925;19;20006;-84
2023/01/17 03:08:08;;;;;;;7.13;2.00;;;;;;;3.56;91.02;96997.13;12226129;19;20027;-84
2023/01/17 03:12:11;;;;;;;6.07;1.98;;;;;;;3.53;90.86;96995.78;12201864;19;19999;-83
2023/01/17 03:16:17;;;;;;;;;;;;;;;3.48;91.30;96994.97;12219521;19;20006;-83
2023/01/17 03:20:19;;;;;;;5.18;1.88;;;;;;;3.45;91.70;97007.25;12213690;19;20278;-85
2023/01/17 03:24:23;;;;;;;3.70;1.67;;;;;;;3.42;91.60;97003.16;12208724;19;20017;-85
2023/01/17 03:28:24;;;;;;;4.53;2.00;;;;;;;3.39;91.93;96995.53;12271012;19;20002;-84
2023/01/17 03:32:26;;;;;;;6.43;2.22;;;;;;;3.36;92.09;96998.81;12226105;19;20075;-83
2023/01/17 03:36:28;;;;;;;5.63;2.22;;;;;;;3.28;92.14;96999.34;12174553;19;20007;-83
2023/01/17 03:40:30;;;;;;;5.85;2.38;;;;;;;3.25;92.38;97001.78;12198076;19;20021;-84
2023/01/17 03:44:33;;;;;;;6.00;2.65;;;;;;;3.14;92.70;97001.75;12202221;19;20527;-84
2023/01/17 03:48:34;;;;;;;3.80;2.55;;;;;;;3.02;93.15;97003.94;12179038;19;20349;-85
2023/01/17 03:52:36;;;;;;;5.22;1.80;;;;;;;2.93;93.37;97005.53;12200682;19;20078;-84
2023/01/17 03:56:37;;;;;;;5.15;1.75;;;;;;;2.83;94.14;97005.53;12200233;19;20006;-82
2023/01/17 04:00:39;;;;;;;4.30;1.88;;;;;;;2.80;94.44;97003.34;12181200;19;20011;-84
2023/01/17 04:04:40;;;;;;;5.63;1.90;;;;;;;2.70;95.38;97006.84;12201057;19;20422;-85
2023/01/17 04:08:42;;;;;;;4.88;1.88;;;;;;;2.57;96.44;97008.19;12199891;19;20003;-85
2023/01/17 04:12:44;;;;;;;5.00;2.38;;;;;;;2.46;97.35;97009.22;12181240;19;20034;-83
2023/01/17 04:16:45;;;;;;;6.35;2.00;;;;;;;2.35;99.07;97015.69;12198824;19;20006;-84
2023/01/17 04:20:47;;;;;;;10.07;2.60;;;;;;;2.24;100.00;97015.66;12213588;19;20026;-84
2023/01/17 04:24:49;;;;;;;10.65;2.22;;;;;;;2.15;100.00;97017.25;12185814;19;20006;-83
2023/01/17 04:28:50;;;;;;;8.18;2.50;;;;;;;2.10;100.00;97022.63;12202660;19;20003;-84
2023/01/17 04:32:53;;;;;;;5.32;2.45;;;;;;;2.06;100.00;97029.69;12198652;19;20007;-84
2023/01/17 04:36:54;;;;;;;4.95;2.55;;;;;;;2.04;100.00;97034.56;12174349;19;20003;-83
2023/01/17 04:40:56;;;;;;;3.85;1.90;;;;;;;2.17;100.00;97035.97;12197401;19;20010;-85
2023/01/17 04:44:57;;;;;;;5.57;2.28;;;;;;;2.28;100.00;97038.50;12188429;19;20007;-84
2023/01/17 04:48:59;;;;;;;5.40;2.67;;;;;;;2.43;100.00;97034.22;12195995;19;20014;-83
2023/01/17 04:53:01;;;;;;;4.72;2.33;;;;;;;2.57;100.00;97039.97;12197411;19;20003;-84
2023/01/17 04:57:03;;;;;;;5.20;2.33;;;;;;;2.67;100.00;97051.69;12173701;19;20358;-84
2023/01/17 05:01:06;;;;;;;6.13;2.15;;;;;;;2.78;100.00;97057.19;12195265;19;20035;-83
2023/01/17 05:05:09;;;;;;;4.90;2.10;;;;;;;2.87;100.00;97048.22;12194325;19;20003;-83
2023/01/17 05:09:11;;;;;;;4.63;2.50;;;;;;;2.95;100.00;97046.91;12176115;19;20024;-84
2023/01/17 05:13:13;;;;;;;5.60;2.50;;;;;;;3.02;99.71;97047.44;12195649;19;20024;-83
2023/01/17 05:17:14;;;;;;;4.32;2.03;;;;;;;3.06;99.60;97050.44;12193761;19;20007;-84
2023/01/17 05:21:16;;;;;;;5.55;2.35;;;;;;;3.12;99.25;97046.66;12175180;19;20472;-82
2023/01/17 05:25:17;;;;;;;5.45;2.28;;;;;;;3.12;99.33;97052.94;12191448;19;20418;-84
2023/01/17 05:29:20;;;;;;;8.38;2.53;;;;;;;3.13;99.83;97059.19;12195505;19;20027;-84
2023/01/17 05:33:22;;;;;;;5.53;2.00;;;;;;;3.11;100.00;97053.19;12172864;19;20010;-83
2023/01/17 05:37:23;;;;;;;3.85;1.90;;;;;;;3.11;100.00;97062.16;12193699;19;20022;-82
2023/01/17 05:41:25;;;;;;;3.53;2.22;;;;;;;3.16;100.00;97058.66;12192636;19;20009;-83
2023/01/17 05:45:28;;;;;;;5.43;2.42;;;;;;;3.19;100.00;97056.19;12171965;19;20030;-84
2023/01/17 05:49:29;;;;;;;6.07;2.58;;;;;;;3.18;100.00;97057.28;12195102;19;20010;-83
2023/01/17 05:53:31;;;;;;;4.65;2.53;;;;;;;3.20;100.00;97059.72;12192817;19;20039;-84
2023/01/17 05:57:33;;;;;;;6.30;3.10;;;;;;;3.18;100.00;97065.47;12171592;19;20006;-82
2023/01/17 06:01:40;;;;;;;5.65;2.65;;;;;;;3.13;100.00;97060.00;12194555;19;20007;-83
2023/01/17 06:05:42;;;;;;;6.63;3.10;;;;;;;3.17;100.00;97055.63;12194674;19;20500;-83
2023/01/17 06:09:43;;;;;;;9.27;3.13;;;;;;;3.17;100.00;97063.81;12174608;19;20610;-84
2023/01/17 06:13:47;;;;;;;7.18;3.20;;;;;;;3.16;100.00;97069.53;12192144;19;20015;-83
2023/01/17 06:17:49;;;;;;;6.22;2.60;;;;;;;3.17;100.00;97074.69;12197803;19;20658;-84
2023/01/17 06:21:50;;;;;;;8.00;2.85;;;;;;;3.17;100.00;97077.41;12169746;19;20057;-83
2023/01/17 06:25:52;;;;;;;7.05;3.95;;;;;;;3.21;100.00;97083.13;12194003;19;20670;-83
2023/01/17 06:29:54;;;;;;;6.03;3.10;;;;;;;3.23;100.00;97086.41;12191588;19;20715;-82
2023/01/17 06:33:55;;;;;;;7.13;3.42;;;;;;;3.30;100.00;97070.66;12168156;19;20010;-83
2023/01/17 06:37:59;;;;;;;6.32;3.20;;;;;;;3.32;100.00;97067.66;12176329;19;20050;-83
2023/01/17 06:42:01;;;;;;;7.43;3.13;;;;;;;3.30;100.00;97070.66;12179701;19;20006;-83
2023/01/17 06:46:02;;;;;;;8.70;2.97;;;;;;;3.23;100.00;97075.53;12205901;19;20034;-84
2023/01/17 06:50:09;;;;;;;6.45;3.53;;;;;;;3.13;100.00;97076.31;12203411;19;20007;-83
2023/01/17 06:54:11;;;;;;;6.13;2.80;;;;;;;3.06;100.00;97078.47;12185430;19;20010;-84
2023/01/17 06:58:13;;;;;;;7.10;3.43;;;;;;;3.02;100.00;97068.41;12206714;19;20007;-84
2023/01/17 07:02:15;;;;;;;11.63;3.97;;;;;;;3.00;100.00;97071.38;12212025;19;20010;-83
2023/01/17 07:06:17;;;;;;;7.22;3.10;;;;;;;2.99;100.00;97074.38;12187233;19;20002;-83
2023/01/17 07:10:20;;;;;;;5.82;3.30;;;;;;;2.92;100.00;97064.56;12209787;19;20006;-83
2023/01/17 07:14:22;;;;;;;10.13;3.40;;;;;;;2.83;100.00;97066.19;12209350;19;20050;-83
2023/01/17 07:18:23;;;;;;;6.90;3.45;;;;;;;2.73;100.00;97068.84;12183990;19;20010;-83
2023/01/17 07:22:26;;;;;;;7.30;3.10;;;;;;;2.67;100.00;97059.03;12207394;19;20003;-83
2023/01/17 07:26:29;;;;;;;9.07;3.43;;;;;;;2.62;100.00;97064.47;12209696;19;20019;-83
2023/01/17 07:30:31;;;;;;;10.73;4.03;;;;;;;2.57;100.00;97053.56;12184281;19;20397;-82
2023/01/17 07:34:33;;;;;;;6.40;3.28;;;;;;;2.52;100.00;97059.78;12204158;19;20006;-82
2023/01/17 07:38:35;;;;;;;8.68;3.42;;;;;;;2.50;100.00;97056.53;12209700;19;20003;-83
2023/01/17 07:42:36;;;;;;;7.43;3.67;;;;;;;2.46;100.00;97056.22;12188084;19;20070;-83
2023/01/17 07:46:39;;;;;;;9.55;3.47;;;;;;;2.48;100.00;97050.56;12207173;19;20360;-82
2023/01/17 07:50:42;;;;;;;10.65;3.45;;;;;;;2.48;100.00;97053.25;12209469;19;20010;-83
2023/01/17 07:54:43;;;;;;;9.13;3.47;;;;;;;2.48;100.00;97042.41;12193311;19;20401;-83
2023/01/17 07:58:47;;;;;;;6.40;3.53;;;;;;;2.40;100.00;97043.72;12220048;19;20010;-83
2023/01/17 08:02:49;;;;;;;8.32;3.67;;;;;;;2.33;100.00;97026.84;12260017;19;20007;-83
2023/01/17 08:06:53;;;;;;;8.50;3.83;;;;;;;2.28;100.00;97022.19;12245988;19;20043;-82
2023/01/17 08:10:57;;;;;;;7.82;3.33;;;;;;;2.24;100.00;97021.09;12229369;19;20350;-84
2023/01/17 08:14:58;;;;;;;12.05;3.90;;;;;;;2.20;100.00;97011.00;12212584;19;20006;-84
2023/01/17 08:19:00;;;;;;;9.68;4.25;;;;;;;2.15;100.00;97006.38;12234237;19;20049;-83
2023/01/17 08:23:04;;;;;;;10.60;4.07;;;;;;;2.14;100.00;97003.91;12272523;19;20005;-82
2023/01/17 08:27:07;;;;;;;10.43;3.22;;;;;;;2.15;100.00;97002.84;12213038;19;20048;-84
2023/01/17 08:31:09;;;;;;;9.40;3.67;;;;;;;2.16;100.00;97001.75;12213985;19;20050;-83
2023/01/17 08:35:11;;;;;;;9.93;4.85;;;;;;;2.23;100.00;97008.59;12208521;19;20034;-84
2023/01/17 08:39:13;;;;;;;8.23;3.70;;;;;;;2.31;100.00;97009.16;12189999;19;20357;-84
2023/01/17 08:43:15;;;;;;;8.60;4.03;;;;;;;2.40;100.00;97007.56;12208913;19;20084;-84
2023/01/17 08:47:17;;;;;;;6.03;2.83;;;;;;;2.46;100.00;97001.88;12208506;19;20286;-84
2023/01/17 08:51:19;;;;;;;6.78;3.60;;;;;;;2.56;100.00;97006.56;12180029;19;20004;-83
2023/01/17 08:55:21;;;;;;;7.53;3.10;;;;;;;2.68;100.00;97004.41;12205684;19;20026;-84
2023/01/17 08:59:23;;;;;;;9.43;3.60;;;;;;;2.82;100.00;97009.31;12207628;19;20007;-84
2023/01/17 09:03:25;;;;;;;8.43;2.95;;;;;;;2.92;100.00;97006.66;12189222;19;20010;-84
2023/01/17 09:07:27;;;;;;;12.57;3.33;;;;;;;3.04;100.00;97012.66;12202489;19;20086;-84
2023/01/17 09:11:28;;;;;;;7.18;3.13;;;;;;;3.16;100.00;97007.75;12204832;19;20007;-83
2023/01/17 09:15:30;;;;;;;5.47;2.58;;;;;;;3.28;100.00;97006.69;12179545;19;20030;-83
2023/01/17 09:19:34;;;;;;;9.02;3.42;;;;;;;3.40;100.00;97015.41;12204145;19;20003;-83
2023/01/17 09:23:36;;;;;;;10.73;4.50;;;;;;;3.50;100.00;97011.84;12204441;19;19998;-83
2023/01/17 09:27:38;;;;;;;7.53;3.25;;;;;;;3.58;100.00;97016.75;12196880;19;20007;-84
2023/01/17 09:31:41;;;;;;;6.90;3.30;;;;;;;3.69;100.00;97021.09;12223546;19;20046;-84
2023/01/17 09:35:43;;;;;;;6.97;3.17;;;;;;;3.78;100.00;97024.09;12202840;19;20003;-83
2023/01/17 09:39:45;;;;;;;;;;;;;;;3.90;98.99;97019.19;12183515;19;20458;-83
2023/01/17 09:43:55;;;;;;;3.25;1.58;;;;;;;4.03;96.90;97028.69;12201135;19;19963;-84
2023/01/17 09:48:00;;;;;;;4.68;2.13;;;;;;;4.10;94.71;97031.91;12198249;19;20006;-84
2023/01/17 09:52:07;;;;;;;4.05;2.03;;;;;;;4.10;93.08;97046.38;12200226;19;20024;-84
2023/01/17 09:56:14;;;;;;;4.85;2.30;;;;;;;4.13;94.29;97049.63;12201151;19;20003;-84
2023/01/17 10:00:38;;;;;;;6.38;2.72;;;;;;;4.26;94.86;97043.63;12182868;19;20078;-84
2023/01/17 10:05:02;;;;;;;6.05;2.63;;;;;;;4.58;94.40;97045.97;12199815;19;20034;-84
2023/01/17 10:09:42;;;;;;;9.68;2.60;;;;;;;4.89;90.52;97048.56;12175645;19;20456;-83
2023/01/17 10:13:52;;;;;;;5.88;2.38;;;;;;;5.13;88.45;97046.78;12214421;19;20009;-83
2023/01/17 10:18:19;;;;;;;5.43;2.28;;;;;;;5.21;85.34;97045.38;12223560;19;20005;-84
2023/01/17 10:22:30;;;;;;;7.90;2.40;;;;;;;5.18;85.95;97041.28;12113474;19;2004496;-83
2023/01/17 10:26:34;;;;;;;5.67;2.10;;;;;;;5.17;86.06;97039.66;12212111;19;20002;-83
2023/01/17 10:30:42;;;;;;;5.72;2.05;;;;;;;5.25;85.25;97041.78;12189815;19;20255;-83
2023/01/17 10:34:50;;;;;;;3.58;2.08;;;;;;;5.52;84.31;97040.50;12208767;19;19999;-83
2023/01/17 10:38:59;;;;;;;8.57;2.58;;;;;;;5.83;83.18;97030.16;12213114;19;20034;-83
2023/01/17 10:43:24;;;;;;;4.30;2.25;;;;;;;6.11;81.61;97025.81;12188138;19;20159;-83
2023/01/17 10:47:31;;;;;;;4.68;2.38;;;;;;;6.14;79.74;97025.22;12207532;19;20002;-82
2023/01/17 10:51:58;;;;;;;7.63;2.53;;;;;;;6.05;78.24;97034.34;12186482;19;20010;-83
2023/01/17 10:56:01;;;;;;;6.43;2.92;;;;;;;6.03;79.32;97040.09;12211369;19;20141;-83
2023/01/17 11:00:20;;;;;;;6.22;2.40;;;;;;;6.04;79.85;97036.28;12187396;19;20015;-83
2023/01/17 11:04:35;;;;;;;5.85;2.50;;;;;;;6.07;78.48;97026.69;12215523;19;19999;-83
2023/01/17 11:08:55;;;;;;;6.10;2.72;;;;;;;5.99;79.50;97025.38;12212230;19;20002;-83
2023/01/17 11:12:57;;;;;;;5.57;2.10;;;;;;;5.87;77.19;97020.28;12186776;19;20425;-83
2023/01/17 11:17:01;;;;;;;5.25;2.67;;;;;;;5.88;78.26;97010.94;12208201;19;20003;-83
2023/01/17 11:21:19;;;;;;;5.38;2.85;;;;;;;5.94;77.62;97006.28;12189878;19;20003;-83
2023/01/17 11:25:32;;;;;;;6.00;2.17;;;;;;;6.00;77.53;97007.88;12207643;19;20537;-84
2023/01/17 11:29:39;;;;;;;3.50;1.92;;;;;;;6.02;76.06;96994.72;12212746;19;20018;-83
2023/01/17 11:33:55;;;;;;;4.03;1.65;;;;;;;6.00;74.17;96982.47;12190951;19;20027;-84
2023/01/17 11:38:18;;;;;;;4.85;1.55;;;;;;;6.11;75.04;96979.31;12210322;19;20007;-83
2023/01/17 11:42:36;;;;;;;5.38;2.55;;;;;;;6.31;75.73;96972.00;12193556;19;20040;-84
2023/01/17 11:46:39;;;;;;;8.93;2.22;;;;;;;6.46;74.29;96971.00;12210869;19;20003;-83
2023/01/17 11:50:45;;;;;;;4.85;2.05;;;;;;;6.42;71.96;96968.03;12213350;19;20030;-84
2023/01/17 11:54:48;;;;;;;4.38;1.85;;;;;;;6.39;73.72;96968.59;12190314;19;20006;-84
2023/01/17 11:59:06;;;;;;;3.65;1.90;;;;;;;6.60;74.53;96958.22;12213888;19;20063;-83
2023/01/17 12:03:28;;;;;;;3.60;1.70;;;;;;;6.93;72.70;96952.84;12198826;19;20019;-84
2023/01/17 12:07:40;;;;;;;3.35;1.65;;;;;;;7.01;70.29;96952.19;12214061;19;20006;-84
2023/01/17 12:16:46;;;;;;;1.98;1.02;;;;;;;7.19;70.12;96939.59;12191837;19;20029;-84
2023/01/17 12:21:15;;;;;;;4.00;1.65;;;;;;;7.08;69.45;96928.81;12211400;19;20014;-84
2023/01/17 12:25:36;;;;;;;3.35;1.38;;;;;;;6.85;69.29;96925.03;12187380;19;20034;-84
2023/01/17 12:29:57;;;;;;;3.53;1.42;;;;;;;7.00;70.39;96917.72;12208212;19;20472;-83
2023/01/17 12:34:26;;;;;;;4.30;1.70;;;;;;;7.38;68.65;96914.94;12186699;19;20010;-84
2023/01/17 12:38:38;;;;;;;4.13;1.77;;;;;;;7.61;65.82;96902.16;12210057;19;20007;-84
2023/01/17 12:42:47;;;;;;;4.75;2.13;;;;;;;7.69;63.47;96896.81;12187913;19;20007;-84
2023/01/17 12:47:01;;;;;;;5.07;1.80;;;;;;;7.78;64.93;96898.84;12227530;19;19999;-84
2023/01/17 12:51:29;;;;;;;6.32;1.55;;;;;;;7.82;63.09;96892.44;12217740;19;20040;-84
2023/01/17 12:55:53;;;;;;;3.75;1.73;;;;;;;7.94;63.07;96886.47;12207355;19;20002;-84
2023/01/17 13:00:11;;;;;;;3.90;1.77;;;;;;;7.94;62.76;96887.31;12213315;19;20090;-84
2023/01/17 13:04:23;;;;;;;3.45;1.50;;;;;;;8.09;62.12;96872.47;12192896;19;20006;-84
2023/01/17 13:08:46;;;;;;;4.45;1.60;;;;;;;7.94;59.97;96865.38;12222866;19;20011;-84
2023/01/17 13:12:49;;;;;;;4.47;1.92;;;;;;;7.91;61.16;96865.13;12202477;19;20530;-84
2023/01/17 13:16:58;;;;;;;4.32;2.17;;;;;;;7.92;60.58;96864.03;12263835;19;20013;-83
2023/01/17 13:21:05;;;;;;;4.28;1.33;;;;;;;7.82;60.32;96862.28;12250056;19;20353;-83
2023/01/17 13:25:38;;;;;;;2.63;1.20;;;;;;;7.78;59.86;96858.53;12218054;19;20034;-84
2023/01/17 13:30:01;;;;;;;4.03;1.80;;;;;;;7.83;59.39;96860.38;12216027;19;20010;-84
2023/01/17 13:34:20;;;;;;;3.00;1.30;;;;;;;7.87;57.72;96862.19;12190874;19;20011;-84
2023/01/17 13:38:59;;;;;;;3.30;1.00;;;;;;;7.69;55.75;96869.41;12213079;19;20010;-84
2023/01/17 13:43:04;;;;;;;1.98;0.95;;;;;;;7.62;56.06;96870.94;12197329;19;20023;-83
2023/01/17 13:47:09;;;;;;;3.65;1.30;;;;;;;7.49;54.83;96875.25;12222809;19;20021;-84
2023/01/17 13:51:11;;;;;;;4.03;1.25;;;;;;;7.29;55.04;96876.44;12258361;19;20082;-83
2023/01/17 13:55:43;;;;;;;2.60;1.30;;;;;;;7.07;55.08;96863.38;12277578;19;20002;-84
2023/01/17 13:59:45;;;;;;;3.45;1.60;;;;;;;6.90;56.54;96866.69;12242370;19;20051;-83
2023/01/17 14:03:50;;;;;;;4.67;2.07;;;;;;;6.74;56.84;96863.34;12215433;19;20429;-84
2023/01/17 14:08:04;;;;;;;5.22;1.88;;;;;;;6.57;56.56;96855.69;12233712;19;20014;-84
2023/01/17 14:12:11;;;;;;;4.13;1.50;;;;;;;6.49;56.83;96852.81;12213395;19;20002;-85
2023/01/17 14:16:26;;;;;;;2.42;0.80;;;;;;;6.42;56.78;96849.59;12232913;19;20059;-84
2023/01/17 14:20:43;;;;;;;3.13;0.95;;;;;;;6.30;57.33;96850.84;12231988;19;20017;-84
2023/01/17 14:25:01;;;;;;;2.05;1.00;;;;;;;6.18;57.27;96839.53;12207736;19;20582;-84
2023/01/17 14:29:41;;;;;;;3.72;1.10;;;;;;;6.01;57.89;96826.38;12219245;19;20126;-84
2023/01/17 14:33:42;;;;;;;2.08;0.90;;;;;;;5.83;58.66;96829.84;12201746;19;20460;-81
2023/01/17 14:37:50;;;;;;;3.47;1.10;;;;;;;5.64;59.56;96832.53;12224547;19;20078;-81
2023/01/17 14:41:51;;;;;;;2.70;0.90;;;;;;;5.48;60.97;96829.97;12229131;19;21035;-81
2023/01/17 14:45:59;;;;;;;3.87;1.03;;;;;;;5.36;62.76;96839.66;12204249;19;20559;-80
2023/01/17 14:50:21;;;;;;;2.55;0.90;;;;;;;5.21;63.78;96840.63;12231157;19;20007;-80
2023/01/17 14:54:24;;;;;;;2.97;1.08;;;;;;;5.09;64.33;96853.84;12205431;19;20494;-80
2023/01/17 14:58:41;;;;;;;3.50;0.95;;;;;;;4.98;65.25;96858.56;12224959;19;20093;-81
2023/01/17 15:02:43;;;;;;;2.00;1.10;;;;;;;4.88;66.52;96862.22;12227950;19;20030;-80
2023/01/17 15:06:45;;;;;;;5.55;2.75;;;;;;;4.79;67.14;96861.19;12202504;19;20039;-80
2023/01/17 15:10:54;;;;;;;6.30;2.35;;;;;;;4.72;67.96;96877.06;12227673;19;20360;-80
2023/01/17 15:14:58;;;;;;;8.55;1.60;;;;;;;4.64;69.14;96864.00;12224897;19;20018;-80
2023/01/17 15:19:01;;;;;;;10.57;1.85;;;;;;;4.54;69.73;96871.16;12198912;19;20011;-80
2023/01/17 15:23:03;;;;;;;9.45;1.40;;;;;;;4.43;70.63;96880.53;12222799;19;20058;-80
2023/01/17 15:27:05;;;;;;;6.25;1.63;;;;;;;4.32;71.59;96876.22;12201042;19;20003;-81
2023/01/17 15:31:39;;;;;;;3.72;1.48;;;;;;;4.21;72.35;96870.00;12224485;19;20013;-80
2023/01/17 15:35:41;;;;;;;3.97;2.00;;;;;;;4.10;72.59;96874.72;12219063;19;20011;-81
2023/01/17 15:39:42;;;;;;;2.28;1.50;;;;;;;3.99;73.57;96867.66;12197382;19;20010;-79
2023/01/17 15:43:44;;;;;;;3.40;1.02;;;;;;;3.93;78.26;96868.78;12220614;19;20002;-80
2023/01/17 15:47:47;;;;;;;16.60;1.57;;;;;;;3.95;77.73;96869.31;12217724;19;20030;-81
2023/01/17 15:51:51;;;;;;;12.88;2.05;;;;;;;3.82;77.04;96870.72;12188521;19;20299;-82
2023/01/17 15:55:53;;;;;;;7.25;2.28;;;;;;;3.70;78.66;96877.59;12210426;19;20003;-81
2023/01/17 16:00:17;;;;;;;3.90;1.77;;;;;;;3.63;78.19;96875.16;12205967;19;20011;-81
2023/01/17 16:04:45;;;;;;;8.18;1.60;;;;;;;3.54;78.27;96879.53;12191864;19;20582;-81
2023/01/17 16:08:51;;;;;;;8.27;2.17;;;;;;;3.46;78.49;96894.53;12217252;19;20007;-82
2023/01/17 16:12:54;;;;;;;5.30;1.73;;;;;;;3.42;79.40;96887.97;12191689;19;20003;-81
2023/01/17 16:16:58;;;;;;;6.03;1.58;;;;;;;3.41;79.61;96881.72;12207950;19;20082;-81
2023/01/17 16:21:13;;;;;;;5.60;1.63;;;;;;;3.38;80.14;96874.13;12212595;19;20031;-81
2023/01/17 16:25:20;;;;;;;4.97;1.35;;;;;;;3.38;80.65;96881.47;12189013;19;20752;-81
2023/01/17 16:29:22;;;;;;;3.83;1.50;;;;;;;3.36;80.75;96870.88;12211877;19;20007;-81
2023/01/17 16:33:24;;;;;;;4.47;1.40;;;;;;;3.35;81.04;96876.56;12176678;19;20022;-82
2023/01/17 16:37:25;;;;;;;3.22;1.65;;;;;;;3.30;80.88;96868.41;12197908;19;20034;-82
2023/01/17 16:41:27;;;;;;;3.28;1.45;;;;;;;3.24;81.16;96866.78;12203459;19;20021;-81
2023/01/17 16:45:29;;;;;;;3.53;1.13;;;;;;;3.15;82.09;96875.53;12182127;19;20010;-81
2023/01/17 16:49:31;;;;;;;8.13;1.70;;;;;;;3.09;82.20;96871.16;12200244;19;20017;-81
2023/01/17 16:53:34;;;;;;;;;;;;;;;3.02;82.95;96870.63;12202061;19;20342;-82
2023/01/17 16:57:35;;;;;;;6.40;1.98;;;;;;;2.95;83.20;96868.19;12181259;19;19906;-81
2023/01/17 17:01:37;;;;;;;4.85;1.38;;;;;;;2.92;83.28;96867.94;12200939;19;20010;-81
2023/01/17 17:05:39;;;;;;;6.50;1.77;;;;;;;2.87;83.43;96854.31;12200219;19;20444;-82
2023/01/17 17:09:40;;;;;;;4.22;1.42;;;;;;;2.84;83.60;96865.75;12185993;19;20081;-80
2023/01/17 17:13:47;;;;;;;2.75;1.30;;;;;;;2.79;84.26;96865.75;12204719;19;20026;-80
2023/01/17 17:17:49;;;;;;;7.38;2.20;;;;;;;2.76;84.32;96863.56;12204490;19;20026;-80
2023/01/17 17:21:51;;;;;;;11.65;3.90;;;;;;;2.72;84.42;96871.44;12185988;19;20078;-80
2023/01/17 17:25:56;;;;;;;9.98;4.07;;;;;;;2.70;84.69;96870.91;12213815;19;20282;-80
2023/01/17 17:29:58;;;;;;;7.35;2.33;;;;;;;2.65;85.30;96870.91;12215829;19;20006;-80
2023/01/17 17:34:00;;;;;;;4.43;1.83;;;;;;;2.59;85.38;96875.53;12195656;19;20010;-81
2023/01/17 17:38:05;;;;;;;;;;;;;;;2.54;85.60;96874.69;12217200;19;20094;-81
2023/01/17 17:42:07;;;;;;;4.22;1.48;;;;;;;2.48;85.14;96880.13;12197318;19;19948;-81
2023/01/17 17:46:09;;;;;;;7.57;1.40;;;;;;;2.44;85.62;96886.34;12218113;19;20007;-80
2023/01/17 17:50:12;;;;;;;3.50;1.40;;;;;;;2.39;85.33;96889.09;12219150;19;20011;-80
2023/01/17 17:54:15;;;;;;;4.95;1.40;;;;;;;2.37;85.54;96894.78;12197192;19;20606;-81
2023/01/17 17:58:18;;;;;;;4.10;1.60;;;;;;;2.37;84.83;96893.97;12218279;19;20043;-81
2023/01/17 18:02:20;;;;;;;7.95;2.35;;;;;;;2.38;84.78;96895.59;12220060;19;20009;-81
2023/01/17 18:06:22;;;;;;;4.13;1.70;;;;;;;2.37;84.23;96889.34;12205338;19;20052;-80
2023/01/17 18:10:32;;;;;;;3.78;1.42;;;;;;;2.38;84.28;96890.16;12259137;19;20019;-80
2023/01/17 18:14:34;;;;;;;4.72;1.50;;;;;;;2.39;84.34;96889.09;12254701;19;20021;-81
2023/01/17 18:18:39;;;;;;;5.35;2.13;;;;;;;2.36;84.67;96895.06;12204866;19;20740;-81
2023/01/17 18:22:40;;;;;;;5.28;2.17;;;;;;;2.38;85.02;96890.16;12232754;19;20006;-81
2023/01/17 18:26:48;;;;;;;5.10;1.98;;;;;;;2.36;84.59;96906.75;12227404;19;20474;-80
2023/01/17 18:30:50;;;;;;;6.38;2.10;;;;;;;2.34;84.65;96908.09;12208223;19;20036;-81
2023/01/17 18:34:52;;;;;;;3.92;1.92;;;;;;;2.32;84.73;96913.81;12237989;19;20030;-81
2023/01/17 18:38:54;;;;;;;6.18;2.08;;;;;;;2.32;84.71;96911.09;12238505;19;20014;-81
2023/01/17 18:42:56;;;;;;;5.60;1.83;;;;;;;2.30;83.73;96915.16;12218510;19;20007;-81
2023/01/17 18:47:03;;;;;;;6.35;2.38;;;;;;;2.28;83.84;96916.22;12237678;19;19998;-80
2023/01/17 18:51:07;;;;;;;6.38;2.70;;;;;;;2.27;83.90;96909.16;12208056;19;20011;-80
2023/01/17 18:55:09;;;;;;;6.15;2.30;;;;;;;2.27;84.20;96911.88;12229213;19;20013;-81
2023/01/17 18:59:13;;;;;;;6.30;1.73;;;;;;;2.27;84.57;96921.94;12227428;19;20428;-82
2023/01/17 19:03:23;;;;;;;7.57;2.60;;;;;;;2.25;84.63;96926.81;12196797;19;20007;-80
2023/01/17 19:07:28;;;;;;;3.67;1.70;;;;;;;2.20;85.39;96930.34;12217712;19;20036;-81
2023/01/17 19:11:30;;;;;;;6.50;2.10;;;;;;;2.19;85.07;96934.13;12219739;19;20006;-80
2023/01/17 19:15:32;;;;;;;2.97;1.60;;;;;;;2.16;85.21;96925.69;12201700;19;21161;-82
2023/01/17 19:19:34;;;;;;;4.90;1.75;;;;;;;2.14;85.09;96947.72;12223877;19;20023;-81
2023/01/17 19:23:36;;;;;;;3.80;1.67;;;;;;;2.17;85.30;96947.19;12219546;19;20018;-81
2023/01/17 19:27:38;;;;;;;6.90;2.88;;;;;;;2.20;84.78;96953.94;12215026;19;20048;-81
2023/01/17 19:31:41;;;;;;;3.95;2.03;;;;;;;2.32;84.84;96967.31;12263459;19;19995;-80
2023/01/17 19:35:44;;;;;;;7.43;2.90;;;;;;;2.43;84.82;96966.25;12243098;19;20348;-82
2023/01/17 19:39:46;;;;;;;6.38;2.30;;;;;;;2.50;84.34;96975.81;12204391;19;20064;-82
2023/01/17 19:43:53;;;;;;;7.43;2.72;;;;;;;2.58;84.42;96979.91;12213665;19;20010;-81
2023/01/17 19:47:54;;;;;;;6.63;2.72;;;;;;;2.68;84.15;96971.78;12207490;19;20731;-81
2023/01/17 19:51:56;;;;;;;7.27;2.30;;;;;;;2.80;84.30;96976.97;12185773;19;20007;-81
2023/01/17 19:55:58;;;;;;;7.80;2.28;;;;;;;2.85;84.00;96970.72;12208047;19;20006;-82
2023/01/17 20:00:01;;;;;;;6.80;2.60;;;;;;;2.91;83.82;96975.06;12209437;19;20078;-83
2023/01/17 20:04:12;;;;;;;5.13;2.25;;;;;;;2.91;84.01;96972.34;12183999;19;20042;-83
2023/01/17 20:08:14;;;;;;;4.93;2.30;;;;;;;2.93;83.37;96964.75;12207810;19;20010;-82
2023/01/17 20:12:16;;;;;;;6.78;2.75;;;;;;;2.94;83.96;96967.22;12185802;19;20512;-82
2023/01/17 20:16:17;;;;;;;4.93;2.35;;;;;;;2.93;83.71;96959.31;12206769;19;20043;-82
2023/01/17 20:20:21;;;;;;;6.82;2.63;;;;;;;2.94;83.95;96966.38;12207661;19;20003;-83
2023/01/17 20:24:25;;;;;;;6.22;2.63;;;;;;;2.94;84.06;96969.94;12187830;19;20029;-82
2023/01/17 20:28:28;;;;;;;9.13;3.05;;;;;;;2.94;84.33;96966.38;12211221;19;20030;-82
2023/01/17 20:32:30;;;;;;;13.02;3.83;;;;;;;2.89;84.24;96964.47;12231902;19;20011;-83
2023/01/17 20:36:32;;;;;;;9.25;3.05;;;;;;;2.82;83.86;96966.63;12205714;19;20011;-83
2023/01/17 20:40:35;;;;;;;4.90;2.60;;;;;;;2.73;84.92;96974.50;12231081;19;20058;-83